sensor_id;sensor_type;location;lat;lon;timestamp;P1;durP1;ratioP1;P2;durP2;ratioP2
12966;SDS011;6548;49.996;8.238;2022-08-01T00:01:43;2.00;;;1.27;;
12966;SDS011;6548;49.996;8.238;2022-08-01T00:04:08;1.02;;;0.90;;
12966;SDS011;6548;49.996;8.238;2022-08-01T00:06:34;1.48;;;1.20;;
12966;SDS011;6548;49.996;8.238;2022-08-01T00:09:00;2.03;;;1.33;;
12966;SDS011;6548;49.996;8.238;2022-08-01T00:11:25;2.40;;;1.20;;
12966;SDS011;6548;49.996;8.238;2022-08-01T00:13:51;1.33;;;1.23;;
12966;SDS011;6548;49.996;8.238;2022-08-01T00:16:17;1.33;;;0.95;;
12966;SDS011;6548;49.996;8.238;2022-08-01T00:18:44;2.53;;;1.00;;
12966;SDS011;6548;49.996;8.238;2022-08-01T00:21:09;1.20;;;1.10;;
12966;SDS011;6548;49.996;8.238;2022-08-01T00:23:35;2.05;;;1.15;;
12966;SDS011;6548;49.996;8.238;2022-08-01T00:26:01;2.20;;;1.17;;
12966;SDS011;6548;49.996;8.238;2022-08-01T00:28:27;2.95;;;1.60;;
12966;SDS011;6548;49.996;8.238;2022-08-01T00:30:52;1.73;;;1.05;;
12966;SDS011;6548;49.996;8.238;2022-08-01T00:33:18;2.25;;;1.55;;
12966;SDS011;6548;49.996;8.238;2022-08-01T00:35:43;1.90;;;0.70;;
12966;SDS011;6548;49.996;8.238;2022-08-01T00:38:09;1.45;;;1.17;;
12966;SDS011;6548;49.996;8.238;2022-08-01T00:40:36;1.20;;;1.10;;
12966;SDS011;6548;49.996;8.238;2022-08-01T00:43:01;1.30;;;1.20;;
12966;SDS011;6548;49.996;8.238;2022-08-01T00:45:27;1.95;;;1.30;;
12966;SDS011;6548;49.996;8.238;2022-08-01T00:47:53;1.48;;;1.10;;
12966;SDS011;6548;49.996;8.238;2022-08-01T00:50:18;1.40;;;0.95;;
12966;SDS011;6548;49.996;8.238;2022-08-01T00:52:44;1.95;;;1.10;;
12966;SDS011;6548;49.996;8.238;2022-08-01T00:55:10;2.42;;;1.52;;
12966;SDS011;6548;49.996;8.238;2022-08-01T00:57:37;1.48;;;0.80;;
12966;SDS011;6548;49.996;8.238;2022-08-01T01:00:04;2.47;;;1.13;;
12966;SDS011;6548;49.996;8.238;2022-08-01T01:02:31;1.92;;;1.13;;
12966;SDS011;6548;49.996;8.238;2022-08-01T01:04:57;2.40;;;1.20;;
12966;SDS011;6548;49.996;8.238;2022-08-01T01:07:32;3.53;;;1.20;;
12966;SDS011;6548;49.996;8.238;2022-08-01T01:10:19;2.22;;;1.65;;
12966;SDS011;6548;49.996;8.238;2022-08-01T01:12:51;3.05;;;1.17;;
12966;SDS011;6548;49.996;8.238;2022-08-01T01:15:34;2.00;;;1.00;;
12966;SDS011;6548;49.996;8.238;2022-08-01T01:18:10;2.60;;;1.17;;
12966;SDS011;6548;49.996;8.238;2022-08-01T01:20:43;1.98;;;0.90;;
12966;SDS011;6548;49.996;8.238;2022-08-01T01:33:33;1.80;;;1.10;;
12966;SDS011;6548;49.996;8.238;2022-08-01T01:36:03;1.38;;;1.08;;
12966;SDS011;6548;49.996;8.238;2022-08-01T01:38:36;1.17;;;0.98;;
12966;SDS011;6548;49.996;8.238;2022-08-01T01:41:07;1.55;;;1.10;;
12966;SDS011;6548;49.996;8.238;2022-08-01T01:43:35;1.58;;;1.27;;
12966;SDS011;6548;49.996;8.238;2022-08-01T01:46:02;1.88;;;1.05;;
12966;SDS011;6548;49.996;8.238;2022-08-01T01:48:29;1.15;;;1.00;;
12966;SDS011;6548;49.996;8.238;2022-08-01T01:50:57;1.92;;;1.10;;
12966;SDS011;6548;49.996;8.238;2022-08-01T01:53:24;1.10;;;1.00;;
12966;SDS011;6548;49.996;8.238;2022-08-01T01:55:53;1.60;;;1.25;;
12966;SDS011;6548;49.996;8.238;2022-08-01T01:58:20;1.77;;;1.10;;
12966;SDS011;6548;49.996;8.238;2022-08-01T02:00:48;1.83;;;1.00;;
12966;SDS011;6548;49.996;8.238;2022-08-01T02:03:15;1.83;;;1.17;;
12966;SDS011;6548;49.996;8.238;2022-08-01T02:05:42;3.25;;;1.13;;
12966;SDS011;6548;49.996;8.238;2022-08-01T02:08:09;1.75;;;0.90;;
12966;SDS011;6548;49.996;8.238;2022-08-01T02:10:36;1.90;;;1.10;;
12966;SDS011;6548;49.996;8.238;2022-08-01T02:13:04;1.50;;;1.20;;
12966;SDS011;6548;49.996;8.238;2022-08-01T02:15:31;1.50;;;1.02;;
12966;SDS011;6548;49.996;8.238;2022-08-01T02:17:59;1.67;;;1.08;;
12966;SDS011;6548;49.996;8.238;2022-08-01T02:20:27;2.60;;;1.10;;
12966;SDS011;6548;49.996;8.238;2022-08-01T02:23:02;1.52;;;1.10;;
12966;SDS011;6548;49.996;8.238;2022-08-01T02:25:44;1.25;;;0.90;;
12966;SDS011;6548;49.996;8.238;2022-08-01T02:28:28;1.25;;;1.02;;
12966;SDS011;6548;49.996;8.238;2022-08-01T02:30:59;1.95;;;1.10;;
12966;SDS011;6548;49.996;8.238;2022-08-01T02:33:29;1.17;;;0.80;;
12966;SDS011;6548;49.996;8.238;2022-08-01T02:36:02;1.65;;;1.10;;
12966;SDS011;6548;49.996;8.238;2022-08-01T02:38:28;1.70;;;0.90;;
12966;SDS011;6548;49.996;8.238;2022-08-01T02:40:57;1.42;;;1.20;;
12966;SDS011;6548;49.996;8.238;2022-08-01T02:43:28;2.80;;;1.00;;
12966;SDS011;6548;49.996;8.238;2022-08-01T02:45:58;2.63;;;1.35;;
12966;SDS011;6548;49.996;8.238;2022-08-01T02:48:26;2.00;;;1.30;;
12966;SDS011;6548;49.996;8.238;2022-08-01T02:50:54;2.47;;;1.08;;
12966;SDS011;6548;49.996;8.238;2022-08-01T02:53:23;2.58;;;1.10;;
12966;SDS011;6548;49.996;8.238;2022-08-01T02:55:50;1.63;;;1.30;;
12966;SDS011;6548;49.996;8.238;2022-08-01T02:58:18;1.10;;;1.00;;
12966;SDS011;6548;49.996;8.238;2022-08-01T03:00:46;1.92;;;1.67;;
12966;SDS011;6548;49.996;8.238;2022-08-01T03:03:13;1.50;;;1.40;;
12966;SDS011;6548;49.996;8.238;2022-08-01T03:05:39;1.30;;;0.90;;
12966;SDS011;6548;49.996;8.238;2022-08-01T03:08:06;1.65;;;1.15;;
12966;SDS011;6548;49.996;8.238;2022-08-01T03:10:33;1.25;;;0.80;;
12966;SDS011;6548;49.996;8.238;2022-08-01T03:13:03;1.48;;;0.90;;
12966;SDS011;6548;49.996;8.238;2022-08-01T03:15:31;1.80;;;1.10;;
12966;SDS011;6548;49.996;8.238;2022-08-01T03:17:58;2.15;;;1.02;;
12966;SDS011;6548;49.996;8.238;2022-08-01T03:20:25;2.10;;;1.02;;
12966;SDS011;6548;49.996;8.238;2022-08-01T03:22:54;2.78;;;1.02;;
12966;SDS011;6548;49.996;8.238;2022-08-01T03:25:23;3.30;;;1.05;;
12966;SDS011;6548;49.996;8.238;2022-08-01T03:27:51;2.25;;;1.10;;
12966;SDS011;6548;49.996;8.238;2022-08-01T03:32:51;1.25;;;1.00;;
12966;SDS011;6548;49.996;8.238;2022-08-01T03:35:17;1.30;;;1.20;;
12966;SDS011;6548;49.996;8.238;2022-08-01T03:37:44;2.22;;;1.17;;
12966;SDS011;6548;49.996;8.238;2022-08-01T03:40:12;2.25;;;1.20;;
12966;SDS011;6548;49.996;8.238;2022-08-01T03:42:49;1.50;;;1.13;;
12966;SDS011;6548;49.996;8.238;2022-08-01T03:45:21;1.80;;;1.00;;
12966;SDS011;6548;49.996;8.238;2022-08-01T03:47:48;2.40;;;1.10;;
12966;SDS011;6548;49.996;8.238;2022-08-01T03:50:19;1.67;;;1.10;;
12966;SDS011;6548;49.996;8.238;2022-08-01T03:52:47;3.05;;;1.10;;
12966;SDS011;6548;49.996;8.238;2022-08-01T03:55:15;2.42;;;1.38;;
12966;SDS011;6548;49.996;8.238;2022-08-01T03:57:43;1.33;;;1.00;;
12966;SDS011;6548;49.996;8.238;2022-08-01T04:00:10;2.40;;;1.10;;
12966;SDS011;6548;49.996;8.238;2022-08-01T04:02:36;1.45;;;1.33;;
12966;SDS011;6548;49.996;8.238;2022-08-01T04:05:03;2.13;;;1.00;;
12966;SDS011;6548;49.996;8.238;2022-08-01T04:07:30;2.50;;;1.17;;
12966;SDS011;6548;49.996;8.238;2022-08-01T04:09:57;2.33;;;1.45;;
12966;SDS011;6548;49.996;8.238;2022-08-01T04:12:23;2.28;;;1.13;;
12966;SDS011;6548;49.996;8.238;2022-08-01T04:14:48;2.22;;;1.30;;
12966;SDS011;6548;49.996;8.238;2022-08-01T04:17:15;2.40;;;1.33;;
12966;SDS011;6548;49.996;8.238;2022-08-01T04:19:41;1.45;;;1.30;;
12966;SDS011;6548;49.996;8.238;2022-08-01T04:22:08;1.60;;;1.15;;
12966;SDS011;6548;49.996;8.238;2022-08-01T04:24:39;1.25;;;1.08;;
12966;SDS011;6548;49.996;8.238;2022-08-01T04:27:11;2.13;;;1.30;;
12966;SDS011;6548;49.996;8.238;2022-08-01T04:29:38;3.42;;;1.83;;
12966;SDS011;6548;49.996;8.238;2022-08-01T04:32:06;1.55;;;1.17;;
12966;SDS011;6548;49.996;8.238;2022-08-01T04:34:36;2.35;;;1.30;;
12966;SDS011;6548;49.996;8.238;2022-08-01T04:37:05;2.00;;;1.20;;
12966;SDS011;6548;49.996;8.238;2022-08-01T04:39:34;3.05;;;1.08;;
12966;SDS011;6548;49.996;8.238;2022-08-01T04:42:02;5.45;;;1.20;;
12966;SDS011;6548;49.996;8.238;2022-08-01T04:44:30;1.65;;;1.20;;
12966;SDS011;6548;49.996;8.238;2022-08-01T04:46:57;1.73;;;1.20;;
12966;SDS011;6548;49.996;8.238;2022-08-01T04:49:28;4.72;;;1.13;;
12966;SDS011;6548;49.996;8.238;2022-08-01T04:51:56;1.77;;;1.30;;
12966;SDS011;6548;49.996;8.238;2022-08-01T04:54:28;4.65;;;1.95;;
12966;SDS011;6548;49.996;8.238;2022-08-01T04:56:55;2.47;;;1.02;;
12966;SDS011;6548;49.996;8.238;2022-08-01T04:59:27;1.25;;;1.15;;
12966;SDS011;6548;49.996;8.238;2022-08-01T05:02:05;2.38;;;2.17;;
12966;SDS011;6548;49.996;8.238;2022-08-01T05:04:32;1.08;;;1.00;;
12966;SDS011;6548;49.996;8.238;2022-08-01T05:06:58;2.53;;;1.30;;
12966;SDS011;6548;49.996;8.238;2022-08-01T05:09:24;2.65;;;1.40;;
12966;SDS011;6548;49.996;8.238;2022-08-01T05:11:50;1.98;;;1.40;;
12966;SDS011;6548;49.996;8.238;2022-08-01T05:14:16;2.67;;;1.30;;
12966;SDS011;6548;49.996;8.238;2022-08-01T05:16:41;1.27;;;1.10;;
12966;SDS011;6548;49.996;8.238;2022-08-01T05:19:07;2.38;;;1.17;;
12966;SDS011;6548;49.996;8.238;2022-08-01T05:21:33;1.63;;;1.20;;
12966;SDS011;6548;49.996;8.238;2022-08-01T05:23:59;1.42;;;1.13;;
12966;SDS011;6548;49.996;8.238;2022-08-01T05:26:24;1.30;;;1.00;;
12966;SDS011;6548;49.996;8.238;2022-08-01T05:28:50;2.53;;;1.10;;
12966;SDS011;6548;49.996;8.238;2022-08-01T05:31:15;1.25;;;1.10;;
12966;SDS011;6548;49.996;8.238;2022-08-01T05:33:41;1.90;;;1.15;;
12966;SDS011;6548;49.996;8.238;2022-08-01T05:36:07;3.20;;;1.63;;
12966;SDS011;6548;49.996;8.238;2022-08-01T05:38:32;1.27;;;1.08;;
12966;SDS011;6548;49.996;8.238;2022-08-01T05:40:58;1.33;;;0.90;;
12966;SDS011;6548;49.996;8.238;2022-08-01T05:43:23;3.28;;;1.02;;
12966;SDS011;6548;49.996;8.238;2022-08-01T05:45:49;1.48;;;1.38;;
12966;SDS011;6548;49.996;8.238;2022-08-01T05:48:14;1.80;;;1.15;;
12966;SDS011;6548;49.996;8.238;2022-08-01T05:50:40;3.15;;;1.30;;
12966;SDS011;6548;49.996;8.238;2022-08-01T05:53:06;3.55;;;1.17;;
12966;SDS011;6548;49.996;8.238;2022-08-01T05:55:31;1.63;;;1.42;;
12966;SDS011;6548;49.996;8.238;2022-08-01T05:57:57;3.67;;;1.35;;
12966;SDS011;6548;49.996;8.238;2022-08-01T06:00:22;2.72;;;1.50;;
12966;SDS011;6548;49.996;8.238;2022-08-01T06:02:48;1.95;;;1.27;;
12966;SDS011;6548;49.996;8.238;2022-08-01T06:05:13;2.00;;;1.33;;
12966;SDS011;6548;49.996;8.238;2022-08-01T06:07:39;2.17;;;1.20;;
12966;SDS011;6548;49.996;8.238;2022-08-01T06:10:05;1.75;;;1.25;;
12966;SDS011;6548;49.996;8.238;2022-08-01T06:12:32;1.50;;;1.30;;
12966;SDS011;6548;49.996;8.238;2022-08-01T06:14:59;2.35;;;1.30;;
12966;SDS011;6548;49.996;8.238;2022-08-01T06:17:24;1.98;;;1.38;;
12966;SDS011;6548;49.996;8.238;2022-08-01T06:19:50;3.53;;;1.63;;
12966;SDS011;6548;49.996;8.238;2022-08-01T06:22:16;1.50;;;1.35;;
12966;SDS011;6548;49.996;8.238;2022-08-01T06:24:41;2.83;;;1.30;;
12966;SDS011;6548;49.996;8.238;2022-08-01T06:27:07;1.88;;;1.63;;
12966;SDS011;6548;49.996;8.238;2022-08-01T06:29:32;2.55;;;1.30;;
12966;SDS011;6548;49.996;8.238;2022-08-01T06:31:58;3.25;;;1.27;;
12966;SDS011;6548;49.996;8.238;2022-08-01T06:34:24;2.00;;;1.02;;
12966;SDS011;6548;49.996;8.238;2022-08-01T06:36:49;1.70;;;1.10;;
12966;SDS011;6548;49.996;8.238;2022-08-01T06:39:15;1.40;;;1.10;;
12966;SDS011;6548;49.996;8.238;2022-08-01T06:41:40;1.38;;;1.27;;
12966;SDS011;6548;49.996;8.238;2022-08-01T06:44:06;1.30;;;1.17;;
12966;SDS011;6548;49.996;8.238;2022-08-01T06:46:32;1.98;;;1.38;;
12966;SDS011;6548;49.996;8.238;2022-08-01T06:48:58;2.45;;;1.20;;
12966;SDS011;6548;49.996;8.238;2022-08-01T06:51:23;4.75;;;1.45;;
12966;SDS011;6548;49.996;8.238;2022-08-01T06:53:49;1.73;;;1.20;;
12966;SDS011;6548;49.996;8.238;2022-08-01T06:56:15;1.45;;;1.35;;
12966;SDS011;6548;49.996;8.238;2022-08-01T06:58:43;2.85;;;1.48;;
12966;SDS011;6548;49.996;8.238;2022-08-01T07:01:09;1.20;;;1.10;;
12966;SDS011;6548;49.996;8.238;2022-08-01T07:03:35;2.58;;;1.30;;
12966;SDS011;6548;49.996;8.238;2022-08-01T07:06:01;2.85;;;1.30;;
12966;SDS011;6548;49.996;8.238;2022-08-01T07:08:26;1.60;;;1.50;;
12966;SDS011;6548;49.996;8.238;2022-08-01T07:10:52;2.25;;;1.42;;
12966;SDS011;6548;49.996;8.238;2022-08-01T07:13:17;1.30;;;1.10;;
12966;SDS011;6548;49.996;8.238;2022-08-01T07:15:46;2.88;;;2.10;;
12966;SDS011;6548;49.996;8.238;2022-08-01T07:18:12;2.20;;;1.45;;
12966;SDS011;6548;49.996;8.238;2022-08-01T07:20:38;1.75;;;1.52;;
12966;SDS011;6548;49.996;8.238;2022-08-01T07:23:03;1.80;;;1.30;;
12966;SDS011;6548;49.996;8.238;2022-08-01T07:25:29;2.05;;;1.30;;
12966;SDS011;6548;49.996;8.238;2022-08-01T07:27:55;1.70;;;1.60;;
12966;SDS011;6548;49.996;8.238;2022-08-01T07:30:20;2.13;;;1.90;;
12966;SDS011;6548;49.996;8.238;2022-08-01T07:32:46;2.75;;;1.90;;
12966;SDS011;6548;49.996;8.238;2022-08-01T07:35:12;1.65;;;1.55;;
12966;SDS011;6548;49.996;8.238;2022-08-01T07:37:37;2.72;;;1.90;;
12966;SDS011;6548;49.996;8.238;2022-08-01T07:40:03;1.58;;;1.38;;
12966;SDS011;6548;49.996;8.238;2022-08-01T07:42:30;2.70;;;2.25;;
12966;SDS011;6548;49.996;8.238;2022-08-01T07:44:56;2.60;;;1.75;;
12966;SDS011;6548;49.996;8.238;2022-08-01T07:47:25;1.92;;;1.70;;
12966;SDS011;6548;49.996;8.238;2022-08-01T07:49:51;2.70;;;1.50;;
12966;SDS011;6548;49.996;8.238;2022-08-01T07:52:17;2.25;;;1.70;;
12966;SDS011;6548;49.996;8.238;2022-08-01T07:54:44;2.30;;;1.70;;
12966;SDS011;6548;49.996;8.238;2022-08-01T07:57:09;2.92;;;2.00;;
12966;SDS011;6548;49.996;8.238;2022-08-01T07:59:35;2.65;;;1.67;;
12966;SDS011;6548;49.996;8.238;2022-08-01T08:02:00;2.75;;;1.63;;
12966;SDS011;6548;49.996;8.238;2022-08-01T08:04:26;2.50;;;1.65;;
12966;SDS011;6548;49.996;8.238;2022-08-01T08:06:52;2.05;;;1.63;;
12966;SDS011;6548;49.996;8.238;2022-08-01T08:09:18;2.28;;;1.60;;
12966;SDS011;6548;49.996;8.238;2022-08-01T08:11:44;1.98;;;1.77;;
12966;SDS011;6548;49.996;8.238;2022-08-01T08:14:11;2.55;;;1.75;;
12966;SDS011;6548;49.996;8.238;2022-08-01T08:16:37;2.03;;;1.90;;
12966;SDS011;6548;49.996;8.238;2022-08-01T08:19:03;1.95;;;1.75;;
12966;SDS011;6548;49.996;8.238;2022-08-01T08:21:28;2.60;;;1.70;;
12966;SDS011;6548;49.996;8.238;2022-08-01T08:23:55;1.83;;;1.63;;
12966;SDS011;6548;49.996;8.238;2022-08-01T08:26:39;2.97;;;1.70;;
12966;SDS011;6548;49.996;8.238;2022-08-01T08:29:06;1.80;;;1.70;;
12966;SDS011;6548;49.996;8.238;2022-08-01T08:31:31;2.70;;;2.08;;
12966;SDS011;6548;49.996;8.238;2022-08-01T08:33:57;2.05;;;1.80;;
12966;SDS011;6548;49.996;8.238;2022-08-01T08:36:23;2.92;;;2.22;;
12966;SDS011;6548;49.996;8.238;2022-08-01T08:38:48;2.55;;;2.35;;
12966;SDS011;6548;49.996;8.238;2022-08-01T08:41:15;3.47;;;2.17;;
12966;SDS011;6548;49.996;8.238;2022-08-01T08:43:41;2.58;;;2.10;;
12966;SDS011;6548;49.996;8.238;2022-08-01T08:46:07;2.30;;;1.88;;
12966;SDS011;6548;49.996;8.238;2022-08-01T08:48:34;2.72;;;2.30;;
12966;SDS011;6548;49.996;8.238;2022-08-01T08:51:01;3.25;;;2.10;;
12966;SDS011;6548;49.996;8.238;2022-08-01T08:53:27;2.42;;;2.22;;
12966;SDS011;6548;49.996;8.238;2022-08-01T08:55:56;2.53;;;1.90;;
12966;SDS011;6548;49.996;8.238;2022-08-01T08:58:22;2.47;;;2.28;;
12966;SDS011;6548;49.996;8.238;2022-08-01T09:00:50;2.00;;;1.90;;
12966;SDS011;6548;49.996;8.238;2022-08-01T09:03:18;2.08;;;1.88;;
12966;SDS011;6548;49.996;8.238;2022-08-01T09:05:44;2.38;;;2.13;;
12966;SDS011;6548;49.996;8.238;2022-08-01T09:08:10;2.78;;;2.22;;
12966;SDS011;6548;49.996;8.238;2022-08-01T09:10:36;4.45;;;2.40;;
12966;SDS011;6548;49.996;8.238;2022-08-01T09:13:06;2.25;;;2.05;;
12966;SDS011;6548;49.996;8.238;2022-08-01T09:15:37;2.42;;;2.22;;
12966;SDS011;6548;49.996;8.238;2022-08-01T09:18:03;3.05;;;2.30;;
12966;SDS011;6548;49.996;8.238;2022-08-01T09:20:29;2.40;;;2.15;;
12966;SDS011;6548;49.996;8.238;2022-08-01T09:22:54;3.00;;;2.60;;
12966;SDS011;6548;49.996;8.238;2022-08-01T09:25:20;2.20;;;2.00;;
12966;SDS011;6548;49.996;8.238;2022-08-01T09:27:46;3.28;;;2.22;;
12966;SDS011;6548;49.996;8.238;2022-08-01T09:30:13;3.55;;;2.67;;
12966;SDS011;6548;49.996;8.238;2022-08-01T09:32:52;4.40;;;2.10;;
12966;SDS011;6548;49.996;8.238;2022-08-01T09:35:34;3.47;;;2.60;;
12966;SDS011;6548;49.996;8.238;2022-08-01T09:38:18;2.72;;;1.90;;
12966;SDS011;6548;49.996;8.238;2022-08-01T09:43:12;2.38;;;2.10;;
12966;SDS011;6548;49.996;8.238;2022-08-01T09:56:10;1.80;;;1.70;;
12966;SDS011;6548;49.996;8.238;2022-08-01T09:58:50;2.88;;;2.08;;
12966;SDS011;6548;49.996;8.238;2022-08-01T10:01:19;2.10;;;1.77;;
12966;SDS011;6548;49.996;8.238;2022-08-01T10:03:46;2.55;;;1.88;;
12966;SDS011;6548;49.996;8.238;2022-08-01T10:06:21;3.72;;;1.90;;
12966;SDS011;6548;49.996;8.238;2022-08-01T10:08:47;2.60;;;2.10;;
12966;SDS011;6548;49.996;8.238;2022-08-01T10:11:13;2.13;;;1.65;;
12966;SDS011;6548;49.996;8.238;2022-08-01T10:13:39;2.30;;;1.80;;
12966;SDS011;6548;49.996;8.238;2022-08-01T10:16:05;2.13;;;1.88;;
12966;SDS011;6548;49.996;8.238;2022-08-01T10:18:32;2.63;;;2.13;;
12966;SDS011;6548;49.996;8.238;2022-08-01T10:21:00;1.67;;;1.58;;
12966;SDS011;6548;49.996;8.238;2022-08-01T10:23:27;1.50;;;1.40;;
12966;SDS011;6548;49.996;8.238;2022-08-01T10:25:55;1.92;;;1.73;;
12966;SDS011;6548;49.996;8.238;2022-08-01T10:28:23;1.50;;;1.33;;
12966;SDS011;6548;49.996;8.238;2022-08-01T10:30:50;1.92;;;1.73;;
12966;SDS011;6548;49.996;8.238;2022-08-01T10:50:15;2.33;;;2.00;;
12966;SDS011;6548;49.996;8.238;2022-08-01T10:53:06;2.95;;;1.75;;
12966;SDS011;6548;49.996;8.238;2022-08-01T10:58:22;2.03;;;1.83;;
12966;SDS011;6548;49.996;8.238;2022-08-01T11:01:14;2.75;;;1.77;;
12966;SDS011;6548;49.996;8.238;2022-08-01T11:03:38;2.15;;;1.95;;
12966;SDS011;6548;49.996;8.238;2022-08-01T11:06:04;2.53;;;1.92;;
12966;SDS011;6548;49.996;8.238;2022-08-01T11:08:30;1.70;;;1.60;;
12966;SDS011;6548;49.996;8.238;2022-08-01T11:11:01;1.85;;;1.75;;
12966;SDS011;6548;49.996;8.238;2022-08-01T11:16:27;2.78;;;1.88;;
12966;SDS011;6548;49.996;8.238;2022-08-01T11:18:53;2.05;;;1.50;;
12966;SDS011;6548;49.996;8.238;2022-08-01T11:21:19;2.97;;;1.70;;
12966;SDS011;6548;49.996;8.238;2022-08-01T11:23:47;2.05;;;1.85;;
12966;SDS011;6548;49.996;8.238;2022-08-01T11:26:14;2.22;;;1.50;;
12966;SDS011;6548;49.996;8.238;2022-08-01T11:28:41;1.95;;;1.58;;
12966;SDS011;6548;49.996;8.238;2022-08-01T11:38:38;1.75;;;1.65;;
12966;SDS011;6548;49.996;8.238;2022-08-01T11:54:27;2.08;;;1.60;;
12966;SDS011;6548;49.996;8.238;2022-08-01T11:56:57;1.83;;;1.65;;
12966;SDS011;6548;49.996;8.238;2022-08-01T11:59:25;2.45;;;2.00;;
12966;SDS011;6548;49.996;8.238;2022-08-01T12:01:51;1.60;;;1.50;;
12966;SDS011;6548;49.996;8.238;2022-08-01T12:04:17;1.80;;;1.58;;
12966;SDS011;6548;49.996;8.238;2022-08-01T12:06:43;1.60;;;1.50;;
12966;SDS011;6548;49.996;8.238;2022-08-01T12:09:18;1.80;;;1.70;;
12966;SDS011;6548;49.996;8.238;2022-08-01T12:11:45;1.95;;;1.70;;
12966;SDS011;6548;49.996;8.238;2022-08-01T12:14:20;2.28;;;2.10;;
12966;SDS011;6548;49.996;8.238;2022-08-01T12:16:53;1.50;;;1.40;;
12966;SDS011;6548;49.996;8.238;2022-08-01T12:19:19;1.70;;;1.60;;
12966;SDS011;6548;49.996;8.238;2022-08-01T12:22:04;1.88;;;1.70;;
12966;SDS011;6548;49.996;8.238;2022-08-01T12:24:30;2.88;;;2.08;;
12966;SDS011;6548;49.996;8.238;2022-08-01T12:26:55;2.22;;;1.45;;
12966;SDS011;6548;49.996;8.238;2022-08-01T12:29:40;2.72;;;1.55;;
12966;SDS011;6548;49.996;8.238;2022-08-01T12:32:21;1.92;;;1.80;;
12966;SDS011;6548;49.996;8.238;2022-08-01T12:34:47;2.03;;;1.50;;
12966;SDS011;6548;49.996;8.238;2022-08-01T12:37:13;1.88;;;1.73;;
12966;SDS011;6548;49.996;8.238;2022-08-01T12:39:40;1.90;;;1.70;;
12966;SDS011;6548;49.996;8.238;2022-08-01T12:42:06;2.13;;;1.90;;
12966;SDS011;6548;49.996;8.238;2022-08-01T12:44:35;3.13;;;1.80;;
12966;SDS011;6548;49.996;8.238;2022-08-01T12:47:02;2.83;;;1.50;;
12966;SDS011;6548;49.996;8.238;2022-08-01T12:49:30;2.38;;;1.83;;
12966;SDS011;6548;49.996;8.238;2022-08-01T12:51:56;1.77;;;1.40;;
12966;SDS011;6548;49.996;8.238;2022-08-01T12:54:22;2.80;;;1.67;;
12966;SDS011;6548;49.996;8.238;2022-08-01T12:56:50;2.10;;;1.90;;
12966;SDS011;6548;49.996;8.238;2022-08-01T12:59:25;2.00;;;1.80;;
12966;SDS011;6548;49.996;8.238;2022-08-01T13:01:52;1.73;;;1.63;;
12966;SDS011;6548;49.996;8.238;2022-08-01T13:04:19;1.58;;;1.48;;
12966;SDS011;6548;49.996;8.238;2022-08-01T13:06:46;1.92;;;1.73;;
12966;SDS011;6548;49.996;8.238;2022-08-01T13:09:13;2.17;;;1.83;;
12966;SDS011;6548;49.996;8.238;2022-08-01T13:11:41;2.63;;;1.88;;
12966;SDS011;6548;49.996;8.238;2022-08-01T13:14:08;2.30;;;2.10;;
12966;SDS011;6548;49.996;8.238;2022-08-01T13:16:44;2.28;;;1.67;;
12966;SDS011;6548;49.996;8.238;2022-08-01T13:19:11;2.05;;;1.65;;
12966;SDS011;6548;49.996;8.238;2022-08-01T13:21:36;2.00;;;1.80;;
12966;SDS011;6548;49.996;8.238;2022-08-01T13:24:03;3.05;;;1.67;;
12966;SDS011;6548;49.996;8.238;2022-08-01T13:29:35;1.75;;;1.65;;
12966;SDS011;6548;49.996;8.238;2022-08-01T13:34:38;1.70;;;1.60;;
12966;SDS011;6548;49.996;8.238;2022-08-01T13:37:04;3.28;;;1.80;;
12966;SDS011;6548;49.996;8.238;2022-08-01T13:39:30;2.17;;;1.70;;
12966;SDS011;6548;49.996;8.238;2022-08-01T13:42:13;5.50;;;3.17;;
12966;SDS011;6548;49.996;8.238;2022-08-01T13:44:40;2.50;;;1.83;;
12966;SDS011;6548;49.996;8.238;2022-08-01T13:47:06;2.40;;;1.77;;
12966;SDS011;6548;49.996;8.238;2022-08-01T13:49:32;4.60;;;1.92;;
12966;SDS011;6548;49.996;8.238;2022-08-01T13:51:58;2.60;;;1.75;;
12966;SDS011;6548;49.996;8.238;2022-08-01T13:54:24;2.10;;;1.90;;
12966;SDS011;6548;49.996;8.238;2022-08-01T13:56:51;2.70;;;1.85;;
12966;SDS011;6548;49.996;8.238;2022-08-01T13:59:17;1.95;;;1.70;;
12966;SDS011;6548;49.996;8.238;2022-08-01T14:01:43;2.08;;;1.60;;
12966;SDS011;6548;49.996;8.238;2022-08-01T14:04:09;3.22;;;1.80;;
12966;SDS011;6548;49.996;8.238;2022-08-01T14:06:34;2.00;;;1.70;;
12966;SDS011;6548;49.996;8.238;2022-08-01T14:09:00;4.03;;;1.70;;
12966;SDS011;6548;49.996;8.238;2022-08-01T14:11:29;2.15;;;1.42;;
12966;SDS011;6548;49.996;8.238;2022-08-01T14:13:55;2.10;;;1.50;;
12966;SDS011;6548;49.996;8.238;2022-08-01T14:16:21;1.60;;;1.50;;
12966;SDS011;6548;49.996;8.238;2022-08-01T14:18:46;3.20;;;1.40;;
12966;SDS011;6548;49.996;8.238;2022-08-01T14:21:12;2.53;;;1.98;;
12966;SDS011;6548;49.996;8.238;2022-08-01T14:23:38;3.47;;;2.67;;
12966;SDS011;6548;49.996;8.238;2022-08-01T14:26:03;3.35;;;2.30;;
12966;SDS011;6548;49.996;8.238;2022-08-01T14:28:29;2.03;;;1.90;;
12966;SDS011;6548;49.996;8.238;2022-08-01T14:30:55;4.20;;;2.30;;
12966;SDS011;6548;49.996;8.238;2022-08-01T14:33:22;2.67;;;2.08;;
12966;SDS011;6548;49.996;8.238;2022-08-01T14:35:48;4.60;;;2.42;;
12966;SDS011;6548;49.996;8.238;2022-08-01T14:38:13;3.60;;;2.47;;
12966;SDS011;6548;49.996;8.238;2022-08-01T14:40:39;2.17;;;2.00;;
12966;SDS011;6548;49.996;8.238;2022-08-01T14:43:05;2.83;;;2.05;;
12966;SDS011;6548;49.996;8.238;2022-08-01T14:45:31;2.25;;;2.05;;
12966;SDS011;6548;49.996;8.238;2022-08-01T14:47:57;3.28;;;2.38;;
12966;SDS011;6548;49.996;8.238;2022-08-01T14:50:24;3.67;;;2.60;;
12966;SDS011;6548;49.996;8.238;2022-08-01T14:52:51;3.85;;;2.53;;
12966;SDS011;6548;49.996;8.238;2022-08-01T14:55:17;4.07;;;3.22;;
12966;SDS011;6548;49.996;8.238;2022-08-01T14:57:46;4.72;;;2.47;;
12966;SDS011;6548;49.996;8.238;2022-08-01T15:00:12;2.53;;;2.33;;
12966;SDS011;6548;49.996;8.238;2022-08-01T15:02:38;5.18;;;2.78;;
12966;SDS011;6548;49.996;8.238;2022-08-01T15:05:11;3.10;;;2.78;;
12966;SDS011;6548;49.996;8.238;2022-08-01T15:07:37;2.95;;;2.70;;
12966;SDS011;6548;49.996;8.238;2022-08-01T15:10:03;4.13;;;3.08;;
12966;SDS011;6548;49.996;8.238;2022-08-01T15:12:30;3.85;;;2.72;;
12966;SDS011;6548;49.996;8.238;2022-08-01T15:14:56;3.25;;;2.67;;
12966;SDS011;6548;49.996;8.238;2022-08-01T15:17:23;2.80;;;2.38;;
12966;SDS011;6548;49.996;8.238;2022-08-01T15:19:54;4.35;;;3.03;;
12966;SDS011;6548;49.996;8.238;2022-08-01T15:22:21;3.20;;;2.90;;
12966;SDS011;6548;49.996;8.238;2022-08-01T15:24:47;3.33;;;2.88;;
12966;SDS011;6548;49.996;8.238;2022-08-01T15:27:13;4.43;;;3.00;;
12966;SDS011;6548;49.996;8.238;2022-08-01T15:29:39;3.30;;;3.00;;
12966;SDS011;6548;49.996;8.238;2022-08-01T15:32:05;4.78;;;3.13;;
12966;SDS011;6548;49.996;8.238;2022-08-01T15:34:32;3.80;;;3.17;;
12966;SDS011;6548;49.996;8.238;2022-08-01T15:36:59;4.50;;;3.40;;
12966;SDS011;6548;49.996;8.238;2022-08-01T15:39:25;3.92;;;3.25;;
12966;SDS011;6548;49.996;8.238;2022-08-01T15:41:51;4.38;;;3.38;;
12966;SDS011;6548;49.996;8.238;2022-08-01T15:44:16;4.15;;;3.15;;
12966;SDS011;6548;49.996;8.238;2022-08-01T15:46:45;3.80;;;3.40;;
12966;SDS011;6548;49.996;8.238;2022-08-01T15:49:14;4.80;;;3.42;;
12966;SDS011;6548;49.996;8.238;2022-08-01T15:51:40;4.00;;;3.40;;
12966;SDS011;6548;49.996;8.238;2022-08-01T15:54:06;3.90;;;3.20;;
12966;SDS011;6548;49.996;8.238;2022-08-01T15:59:09;4.88;;;3.15;;
12966;SDS011;6548;49.996;8.238;2022-08-01T16:01:35;3.50;;;3.05;;
12966;SDS011;6548;49.996;8.238;2022-08-01T16:04:02;5.05;;;3.30;;
12966;SDS011;6548;49.996;8.238;2022-08-01T16:06:29;3.20;;;2.88;;
12966;SDS011;6548;49.996;8.238;2022-08-01T16:08:54;3.50;;;2.75;;
12966;SDS011;6548;49.996;8.238;2022-08-01T16:11:20;4.18;;;2.50;;
12966;SDS011;6548;49.996;8.238;2022-08-01T16:13:48;3.88;;;2.95;;
12966;SDS011;6548;49.996;8.238;2022-08-01T16:16:13;3.45;;;2.42;;
12966;SDS011;6548;49.996;8.238;2022-08-01T16:18:41;3.15;;;2.38;;
12966;SDS011;6548;49.996;8.238;2022-08-01T16:21:07;3.30;;;2.58;;